Gardner, Louisiana
Current Conditions -  °F | °C
As of 4:53 AM on Thursday 27 Nov 2014 (Local Time) from KAEX Reporting Station
Clear Clear  
Wind Chill: 38°   Ceiling: Unl
Heat Index: 42°   Visibility: 10mi
Dew Point: 34°   Wind: 7mph
Humidity: 73%   Direction: 330°NNW
Pressure: 30.39"   Gusts: NA
Location:  31.27°N, 92.69°W
Report Text: KAEX 271053Z AUTO 33006KT 10SM CLR 06/01 A3039 RMK AO2 SLP294 T00560011
Loading
Personal Weather Stations






























Interactive Weather Map New forecast layout! Learn more

10-Day Weather Forecast

Advertisements
Track Severe Weather on mobile